Home > Products > Valid Products > TAF

000
FTUS45 KVEF 060533
TAFDAG
TAF
KDAG 060533Z 0606/0706 27006KT P6SM FEW250
     FM062000 05006KT P6SM FEW250
     FM070100 VRB05KT P6SM FEW250=



000
FTUS45 KVEF 060533
TAFBIH
TAF
KBIH 060533Z 0606/0706 33006KT P6SM FEW250
     FM061600 VRB05KT P6SM FEW250
     FM070200 34007KT P6SM FEW250=



000
FTUS45 KVEF 060533
TAFLAS
TAF
KLAS 060533Z 0606/0706 VRB05KT P6SM SKC
     FM062200 06006KT P6SM FEW250
     FM070300 21006KT P6SM FEW250=



000
FTUS45 KVEF 060533
TAFEED
TAF
KEED 060533Z 0606/0706 34011KT P6SM SKC
     FM061500 01014G22KT P6SM FEW250
     FM070200 36012KT P6SM FEW250=



000
FTUS45 KVEF 060533
TAFVGT
TAF
KVGT 060533Z 0606/0706 33006KT P6SM SKC
     FM061800 VRB05KT P6SM FEW250
     FM070400 33006KT P6SM FEW250=



000
FTUS45 KVEF 060533
TAFLAS
TAF
KLAS 060533Z 0606/0706 VRB05KT P6SM SKC
     FM062200 06006KT P6SM FEW250
     FM070300 21006KT P6SM FEW250=



000
FTUS45 KVEF 060533
TAFLAS
TAF
KLAS 060533Z 0606/0706 VRB05KT P6SM SKC
     FM062200 06006KT P6SM FEW250
     FM070300 21006KT P6SM FEW250=



000
FTUS45 KVEF 060533
TAFBIH
TAF
KBIH 060533Z 0606/0706 33006KT P6SM FEW250
     FM061600 VRB05KT P6SM FEW250
     FM070200 34007KT P6SM FEW250=



000
FTUS45 KVEF 060533
TAFEED
TAF
KEED 060533Z 0606/0706 34011KT P6SM SKC
     FM061500 01014G22KT P6SM FEW250
     FM070200 36012KT P6SM FEW250=



000
FTUS45 KVEF 060533
TAFVGT
TAF
KVGT 060533Z 0606/0706 33006KT P6SM SKC
     FM061800 VRB05KT P6SM FEW250
     FM070400 33006KT P6SM FEW250=



000
FTUS45 KVEF 060533
TAFDAG
TAF
KDAG 060533Z 0606/0706 27006KT P6SM FEW250
     FM062000 05006KT P6SM FEW250
     FM070100 VRB05KT P6SM FEW250=



000
FTUS45 KVEF 060246 AAA
TAFLAS
TAF AMD
KLAS 060246Z 0603/0624 VRB06KT P6SM FEW250=



000
FTUS45 KVEF 052320
TAFBIH
TAF
KBIH 052320Z 0600/0624 17005KT P6SM SKC
     FM060400 33006KT P6SM FEW250
     FM061800 VRB05KT P6SM FEW250=



000
FTUS45 KVEF 052320
TAFEED
TAF
KEED 052320Z 0600/0624 01014G24KT P6SM SKC
     FM060200 34011KT P6SM FEW250
     FM061500 01014G22KT P6SM FEW250=



000
FTUS45 KVEF 052320
TAFLAS
TAF
KLAS 052320Z 0600/0624 05007KT P6SM FEW250
      TEMPO 0600/0602 05010G16KT
     FM060300 VRB06KT P6SM FEW250=



000
FTUS45 KVEF 052320
TAFVGT
TAF
KVGT 052320Z 0600/0624 VRB05KT P6SM FEW250
     FM060300 33006KT P6SM FEW250
     FM061800 VRB05KT P6SM FEW250=



000
FTUS45 KVEF 052320
TAFLAS
TAF
KLAS 052320Z 0600/0624 05007KT P6SM FEW250
      TEMPO 0600/0602 05010G16KT
     FM060300 VRB06KT P6SM FEW250=



000
FTUS45 KVEF 052320
TAFVGT
TAF
KVGT 052320Z 0600/0624 VRB05KT P6SM FEW250
     FM060300 33006KT P6SM FEW250
     FM061800 VRB05KT P6SM FEW250=



000
FTUS45 KVEF 052320
TAFEED
TAF
KEED 052320Z 0600/0624 01014G24KT P6SM SKC
     FM060200 34011KT P6SM FEW250
     FM061500 01014G22KT P6SM FEW250=



000
FTUS45 KVEF 052320
TAFBIH
TAF
KBIH 052320Z 0600/0624 17005KT P6SM SKC
     FM060400 33006KT P6SM FEW250
     FM061800 VRB05KT P6SM FEW250=



000
FTUS45 KVEF 052320
TAFDAG
TAF
KDAG 052320Z 0600/0624 08006KT P6SM SKC
     FM060100 VRB05KT P6SM FEW250
     FM060600 27005KT P6SM FEW250
     FM062100 VRB05KT P6SM FEW250=



000
FTUS45 KVEF 052320
TAFLAS
TAF
KLAS 052320Z 0600/0624 05007KT P6SM FEW250
      TEMPO 0600/0602 05010G16KT
     FM060300 VRB06KT P6SM FEW250=



000
FTUS45 KVEF 052320
TAFDAG
TAF
KDAG 052320Z 0600/0624 08006KT P6SM SKC
     FM060100 VRB05KT P6SM FEW250
     FM060600 27005KT P6SM FEW250
     FM062100 VRB05KT P6SM FEW250=



000
FTUS45 KVEF 052239 AAB
TAFLAS
TAF AMD
KLAS 052239Z 0523/0618 05007KT P6SM FEW250
      TEMPO 0523/0602 05010G16KT
     FM060300 VRB06KT P6SM FEW250=



000
FTUS45 KVEF 052239 AAB
TAFLAS
TAF AMD
KLAS 052239Z 0523/0618 05007KT P6SM FEW250
      TEMPO 0523/0602 05010G16KT
     FM060300 VRB06KT P6SM FEW250=



000
FTUS45 KVEF 052046 AAA
TAFLAS
TAF AMD
KLAS 052046Z 0521/0618 05010G16KT P6SM SKC
     FM060200 VRB06KT P6SM FEW250=



000
FTUS45 KVEF 052046 AAA
TAFLAS
TAF AMD
KLAS 052046Z 0521/0618 05010G16KT P6SM SKC
     FM060200 VRB06KT P6SM FEW250=



000
FTUS45 KVEF 052046 AAA
TAFLAS
TAF AMD
KLAS 052046Z 0521/0618 05010G16KT P6SM SKC
     FM060200 VRB06KT P6SM FEW250=



000
FTUS45 KVEF 051728
TAFBIH
TAF
KBIH 051728Z 0518/0618 34006KT P6SM SKC
     FM052000 17005KT P6SM SKC
     FM060400 33006KT P6SM FEW200=



000
FTUS45 KVEF 051728
TAFDAG
TAF
KDAG 051728Z 0518/0618 VRB04KT P6SM SKC
     FM052000 08006KT P6SM SKC
     FM060100 VRB05KT P6SM FEW250=



000
FTUS45 KVEF 051728
TAFEED
TAF
KEED 051728Z 0518/0618 01014KT P6SM SKC
     FM051900 01014G24KT P6SM SKC
     FM060200 34011KT P6SM FEW250=



000
FTUS45 KVEF 051728
TAFLAS
TAF
KLAS 051728Z 0518/0618 VRB04KT P6SM SKC
     FM051900 05007KT P6SM SKC
     FM060300 21005KT P6SM FEW250=



000
FTUS45 KVEF 051728
TAFLAS
TAF
KLAS 051728Z 0518/0618 VRB04KT P6SM SKC
     FM051900 05007KT P6SM SKC
     FM060300 21005KT P6SM FEW250=



000
FTUS45 KVEF 051728
TAFVGT
TAF
KVGT 051728Z 0518/0618 36010KT P6SM SKC
     FM060300 33006KT P6SM FEW250=



000
FTUS45 KVEF 051728
TAFEED
TAF
KEED 051728Z 0518/0618 01014KT P6SM SKC
     FM051900 01014G24KT P6SM SKC
     FM060200 34011KT P6SM FEW250=



000
FTUS45 KVEF 051728
TAFBIH
TAF
KBIH 051728Z 0518/0618 34006KT P6SM SKC
     FM052000 17005KT P6SM SKC
     FM060400 33006KT P6SM FEW200=



000
FTUS45 KVEF 051728
TAFDAG
TAF
KDAG 051728Z 0518/0618 VRB04KT P6SM SKC
     FM052000 08006KT P6SM SKC
     FM060100 VRB05KT P6SM FEW250=



000
FTUS45 KVEF 051728
TAFLAS
TAF
KLAS 051728Z 0518/0618 VRB04KT P6SM SKC
     FM051900 05007KT P6SM SKC
     FM060300 21005KT P6SM FEW250=



000
FTUS45 KVEF 051728
TAFVGT
TAF
KVGT 051728Z 0518/0618 36010KT P6SM SKC
     FM060300 33006KT P6SM FEW250=



000
FTUS45 KVEF 051436 AAA
TAFLAS
TAF AMD
KLAS 051436Z 0515/0612 VRB06KT P6SM FEW250
     FM051800 05007KT P6SM FEW250
     FM060300 21005KT P6SM FEW250=



000
FTUS45 KVEF 051436 AAA
TAFLAS
TAF AMD
KLAS 051436Z 0515/0612 VRB06KT P6SM FEW250
     FM051800 05007KT P6SM FEW250
     FM060300 21005KT P6SM FEW250=



000
FTUS45 KVEF 051436 AAA
TAFLAS
TAF AMD
KLAS 051436Z 0515/0612 VRB06KT P6SM FEW250
     FM051800 05007KT P6SM FEW250
     FM060300 21005KT P6SM FEW250=



000
FTUS45 KVEF 051120
TAFBIH
TAF
KBIH 051120Z 0512/0612 33006KT P6SM FEW200
     FM052000 17005KT P6SM FEW200
     FM060400 33006KT P6SM FEW200=



000
FTUS45 KVEF 051120
TAFVGT
TAF
KVGT 051120Z 0512/0612 34010KT P6SM FEW250
     FM051800 VRB05KT P6SM FEW250
     FM060300 33005KT P6SM FEW250=



000
FTUS45 KVEF 051120
TAFEED
TAF
KEED 051120Z 0512/0612 34014KT P6SM FEW250
     FM051800 01015G25KT P6SM FEW250
     FM060200 34011KT P6SM FEW250=



000
FTUS45 KVEF 051120
TAFEED
TAF
KEED 051120Z 0512/0612 34014KT P6SM FEW250
     FM051800 01015G25KT P6SM FEW250
     FM060200 34011KT P6SM FEW250=



000
FTUS45 KVEF 051120
TAFBIH
TAF
KBIH 051120Z 0512/0612 33006KT P6SM FEW200
     FM052000 17005KT P6SM FEW200
     FM060400 33006KT P6SM FEW200=



000
FTUS45 KVEF 051120
TAFLAS
TAF
KLAS 051120Z 0512/0612 VRB06KT P6SM FEW250
     FM051800 05007KT P6SM FEW250
     FM060300 21005KT P6SM FEW250=



000
FTUS45 KVEF 051120
TAFDAG
TAF
KDAG 051120Z 0512/0612 27005KT P6SM FEW250
     FM051800 08006KT P6SM FEW250
     FM060100 VRB05KT P6SM FEW250=



000
FTUS45 KVEF 051120
TAFVGT
TAF
KVGT 051120Z 0512/0612 34010KT P6SM FEW250
     FM051800 VRB05KT P6SM FEW250
     FM060300 33005KT P6SM FEW250=



000
FTUS45 KVEF 051120
TAFLAS
TAF
KLAS 051120Z 0512/0612 VRB06KT P6SM FEW250
     FM051800 05007KT P6SM FEW250
     FM060300 21005KT P6SM FEW250=



000
FTUS45 KVEF 051120
TAFLAS
TAF
KLAS 051120Z 0512/0612 VRB06KT P6SM FEW250
     FM051800 05007KT P6SM FEW250
     FM060300 21005KT P6SM FEW250=



000
FTUS45 KVEF 051120
TAFDAG
TAF
KDAG 051120Z 0512/0612 27005KT P6SM FEW250
     FM051800 08006KT P6SM FEW250
     FM060100 VRB05KT P6SM FEW250=



000
FTUS45 KVEF 050845 AAA
TAFLAS
TAF AMD
KLAS 050845Z 0509/0606 VRB05KT P6SM FEW250
     FM051800 05007KT P6SM FEW250
     FM060300 21005KT P6SM FEW250=



000
FTUS45 KVEF 050845 AAA
TAFLAS
TAF AMD
KLAS 050845Z 0509/0606 VRB05KT P6SM FEW250
     FM051800 05007KT P6SM FEW250
     FM060300 21005KT P6SM FEW250=



000
FTUS45 KVEF 050845 AAA
TAFLAS
TAF AMD
KLAS 050845Z 0509/0606 VRB05KT P6SM FEW250
     FM051800 05007KT P6SM FEW250
     FM060300 21005KT P6SM FEW250=



000
FTUS45 KVEF 050520
TAFDAG
TAF
KDAG 050520Z 0506/0606 27005KT P6SM FEW250
     FM051800 08006KT P6SM FEW250
     FM060100 VRB05KT P6SM FEW250=



000
FTUS45 KVEF 050520
TAFLAS
TAF
KLAS 050520Z 0506/0606 VRB05KT P6SM FEW250
     FM051800 05007KT P6SM FEW250
     FM060300 21005KT P6SM FEW250=



000
FTUS45 KVEF 050520
TAFBIH
TAF
KBIH 050520Z 0506/0606 33006KT P6SM FEW200
     FM052000 17005KT P6SM FEW200
     FM060400 33006KT P6SM FEW200=



000
FTUS45 KVEF 050520
TAFVGT
TAF
KVGT 050520Z 0506/0606 34010KT P6SM FEW250
     FM051800 VRB05KT P6SM FEW250
     FM060300 33005KT P6SM FEW250=



000
FTUS45 KVEF 050520
TAFEED
TAF
KEED 050520Z 0506/0606 34010KT P6SM FEW250
     FM051800 01015G25KT P6SM FEW250
     FM060200 34011KT P6SM FEW250=



000
FTUS45 KVEF 050520
TAFLAS
TAF
KLAS 050520Z 0506/0606 VRB05KT P6SM FEW250
     FM051800 05007KT P6SM FEW250
     FM060300 21005KT P6SM FEW250=



000
FTUS45 KVEF 050520
TAFDAG
TAF
KDAG 050520Z 0506/0606 27005KT P6SM FEW250
     FM051800 08006KT P6SM FEW250
     FM060100 VRB05KT P6SM FEW250=



000
FTUS45 KVEF 050520
TAFVGT
TAF
KVGT 050520Z 0506/0606 34010KT P6SM FEW250
     FM051800 VRB05KT P6SM FEW250
     FM060300 33005KT P6SM FEW250=



000
FTUS45 KVEF 050520
TAFEED
TAF
KEED 050520Z 0506/0606 34010KT P6SM FEW250
     FM051800 01015G25KT P6SM FEW250
     FM060200 34011KT P6SM FEW250=



000
FTUS45 KVEF 050520
TAFBIH
TAF
KBIH 050520Z 0506/0606 33006KT P6SM FEW200
     FM052000 17005KT P6SM FEW200
     FM060400 33006KT P6SM FEW200=



000
FTUS45 KVEF 050251 AAA
TAFLAS
TAF AMD
KLAS 050251Z 0503/0524 VRB05KT P6SM SCT250
     FM051800 05006KT P6SM SCT250=



000
FTUS45 KVEF 042320
TAFDAG
TAF
KDAG 042320Z 0500/0524 VRB04KT P6SM FEW200
     FM050600 27005KT P6SM FEW250
     FM051800 VRB05KT P6SM FEW250=



000
FTUS45 KVEF 042320
TAFEED
TAF
KEED 042320Z 0500/0524 01015G25KT P6SM SCT250
     FM050200 35014KT P6SM SCT250
     FM051800 01015G25KT P6SM FEW250=



000
FTUS45 KVEF 042320
TAFVGT
TAF
KVGT 042320Z 0500/0524 VRB05KT P6SM FEW200
     FM050300 32006KT P6SM SCT250
     FM051800 VRB05KT P6SM SCT250=



000
FTUS45 KVEF 042320
TAFLAS
TAF
KLAS 042320Z 0500/0524 VRB05KT P6SM FEW150 SCT220
     FM050300 20005KT P6SM SCT250
     FM051800 05006KT P6SM SCT250=



000
FTUS45 KVEF 042320
TAFBIH
TAF
KBIH 042320Z 0500/0524 VRB05KT P6SM FEW100 BKN200
     FM050300 33006KT P6SM SCT200
     FM052000 17005KT P6SM SCT200=



000
FTUS45 KVEF 042320
TAFVGT
TAF
KVGT 042320Z 0500/0524 VRB05KT P6SM FEW200
     FM050300 32006KT P6SM SCT250
     FM051800 VRB05KT P6SM SCT250=



000
FTUS45 KVEF 042320
TAFEED
TAF
KEED 042320Z 0500/0524 01015G25KT P6SM SCT250
     FM050200 35014KT P6SM SCT250
     FM051800 01015G25KT P6SM FEW250=



000
FTUS45 KVEF 042320
TAFDAG
TAF
KDAG 042320Z 0500/0524 VRB04KT P6SM FEW200
     FM050600 27005KT P6SM FEW250
     FM051800 VRB05KT P6SM FEW250=



000
FTUS45 KVEF 042320
TAFBIH
TAF
KBIH 042320Z 0500/0524 VRB05KT P6SM FEW100 BKN200
     FM050300 33006KT P6SM SCT200
     FM052000 17005KT P6SM SCT200=



000
FTUS45 KVEF 042320
TAFLAS
TAF
KLAS 042320Z 0500/0524 VRB05KT P6SM FEW150 SCT220
     FM050300 20005KT P6SM SCT250
     FM051800 05006KT P6SM SCT250=



000
FTUS45 KVEF 042046 AAA
TAFEED
TAF AMD
KEED 042046Z 0421/0518 01012KT P6SM FEW100
     FM050200 33008KT P6SM FEW080=



000
FTUS45 KVEF 042046 AAA
TAFEED
TAF AMD
KEED 042046Z 0421/0518 01012KT P6SM FEW100
     FM050200 33008KT P6SM FEW080=



000
FTUS45 KVEF 042045 AAA
TAFLAS
TAF AMD
KLAS 042045Z 0421/0518 VRB05KT P6SM FEW150 SCT220
     FM050300 20005KT P6SM SCT250=



000
FTUS45 KVEF 042045 AAA
TAFLAS
TAF AMD
KLAS 042045Z 0421/0518 VRB05KT P6SM FEW150 SCT220
     FM050300 20005KT P6SM SCT250=



000
FTUS45 KVEF 042045 AAA
TAFLAS
TAF AMD
KLAS 042045Z 0421/0518 VRB05KT P6SM FEW150 SCT220
     FM050300 20005KT P6SM SCT250=



000
FTUS45 KVEF 041720
TAFDAG
TAF
KDAG 041720Z 0418/0518 27007KT P6SM SCT140 BKN200
     FM041900 04007KT P6SM FEW150
     FM050000 VRB04KT P6SM FEW200=



000
FTUS45 KVEF 041720
TAFVGT
TAF
KVGT 041720Z 0418/0518 VRB05KT P6SM FEW200
     FM050300 32006KT P6SM SCT250=



000
FTUS45 KVEF 041720
TAFEED
TAF
KEED 041720Z 0418/0518 01014G24KT P6SM FEW100
     FM050200 33008KT P6SM FEW080=



000
FTUS45 KVEF 041720
TAFBIH
TAF
KBIH 041720Z 0418/0518 VRB05KT P6SM FEW100 BKN200
     FM050300 33006KT P6SM SCT200=



000
FTUS45 KVEF 041720
TAFLAS
TAF
KLAS 041720Z 0418/0518 VRB05KT P6SM FEW150 SCT220
     FM050300 20005KT P6SM SCT250=



000
FTUS45 KVEF 041436 AAA
TAFLAS
TAF AMD
KLAS 041436Z 0415/0512 VRB05KT P6SM FEW150 SCT220
     FM050300 20005KT P6SM SCT250=



000
FTUS45 KVEF 041120
TAFLAS
TAF
KLAS 041120Z 0412/0512 VRB05KT P6SM SCT150 BKN200
     FM050300 20005KT P6SM SCT250=



000
FTUS45 KVEF 041120
TAFEED
TAF
KEED 041120Z 0412/0512 33008KT P6SM FEW140 BKN200
     FM041800 01014G24KT P6SM FEW100
     FM050200 33008KT P6SM FEW080=



000
FTUS45 KVEF 041120
TAFBIH
TAF
KBIH 041120Z 0412/0512 33006KT P6SM SCT100 BKN200
     FM041700 VRB05KT P6SM FEW100 BKN200
     FM050300 33006KT P6SM SCT200=



000
FTUS45 KVEF 041120
TAFLAS
TAF
KLAS 041120Z 0412/0512 VRB05KT P6SM SCT150 BKN200
     FM050300 20005KT P6SM SCT250=



000
FTUS45 KVEF 041120
TAFDAG
TAF
KDAG 041120Z 0412/0512 27007KT P6SM SCT140 BKN200
     FM041900 04007KT P6SM FEW150
     FM050000 VRB04KT P6SM FEW200=



000
FTUS45 KVEF 041120
TAFEED
TAF
KEED 041120Z 0412/0512 33008KT P6SM FEW140 BKN200
     FM041800 01014G24KT P6SM FEW100
     FM050200 33008KT P6SM FEW080=



000
FTUS45 KVEF 041120
TAFLAS
TAF
KLAS 041120Z 0412/0512 VRB05KT P6SM SCT150 BKN200
     FM050300 20005KT P6SM SCT250=



000
FTUS45 KVEF 041120
TAFBIH
TAF
KBIH 041120Z 0412/0512 33006KT P6SM SCT100 BKN200
     FM041700 VRB05KT P6SM FEW100 BKN200
     FM050300 33006KT P6SM SCT200=



000
FTUS45 KVEF 041120
TAFVGT
TAF
KVGT 041120Z 0412/0512 32006KT P6SM SCT150 BKN200
     FM041800 VRB05KT P6SM FEW200
     FM050300 32006KT P6SM SCT250=



000
FTUS45 KVEF 041120
TAFDAG
TAF
KDAG 041120Z 0412/0512 27007KT P6SM SCT140 BKN200
     FM041900 04007KT P6SM FEW150
     FM050000 VRB04KT P6SM FEW200=



000
FTUS45 KVEF 041120
TAFVGT
TAF
KVGT 041120Z 0412/0512 32006KT P6SM SCT150 BKN200
     FM041800 VRB05KT P6SM FEW200
     FM050300 32006KT P6SM SCT250=



000
FTUS45 KVEF 040845 AAA
TAFLAS
TAF AMD
KLAS 040845Z 0409/0506 20005KT P6SM SCT140 SCT200
     FM041200 VRB05KT P6SM FEW080 SCT200
     FM050300 20005KT P6SM FEW080=



000
FTUS45 KVEF 040537
TAFLAS
TAF
KLAS 040537Z 0406/0506 20005KT P6SM SCT140 SCT200
     FM041200 VRB05KT P6SM FEW080 SCT200
     FM050300 20005KT P6SM FEW080=



000
FTUS45 KVEF 040537
TAFBIH
TAF
KBIH 040537Z 0406/0506 33006KT P6SM SCT100 BKN200
     FM041700 VRB05KT P6SM FEW100 BKN200
     FM050300 33006KT P6SM FEW200=



000
FTUS45 KVEF 040537
TAFVGT
TAF
KVGT 040537Z 0406/0506 32006KT P6SM SCT140 BKN200
     FM041800 VRB05KT P6SM FEW080 SCT200
     FM050300 32006KT P6SM FEW080=



000
FTUS45 KVEF 040537
TAFEED
TAF
KEED 040537Z 0406/0506 33008KT P6SM FEW140 BKN200
     FM041800 01014G24KT P6SM FEW100
     FM050200 33008KT P6SM FEW080=



000
FTUS45 KVEF 040537
TAFDAG
TAF
KDAG 040537Z 0406/0506 27007KT P6SM SCT140 BKN200
     FM041900 04007KT P6SM FEW150
     FM050000 VRB04KT P6SM FEW200=



000
FTUS45 KVEF 040537
TAFBIH
TAF
KBIH 040537Z 0406/0506 33006KT P6SM SCT100 BKN200
     FM041700 VRB05KT P6SM FEW100 BKN200
     FM050300 33006KT P6SM FEW200=



000
FTUS45 KVEF 040537
TAFLAS
TAF
KLAS 040537Z 0406/0506 20005KT P6SM SCT140 SCT200
     FM041200 VRB05KT P6SM FEW080 SCT200
     FM050300 20005KT P6SM FEW080=



000
FTUS45 KVEF 040537
TAFDAG
TAF
KDAG 040537Z 0406/0506 27007KT P6SM SCT140 BKN200
     FM041900 04007KT P6SM FEW150
     FM050000 VRB04KT P6SM FEW200=



000
FTUS45 KVEF 040537
TAFLAS
TAF
KLAS 040537Z 0406/0506 20005KT P6SM SCT140 SCT200
     FM041200 VRB05KT P6SM FEW080 SCT200
     FM050300 20005KT P6SM FEW080=



000
FTUS45 KVEF 040537
TAFVGT
TAF
KVGT 040537Z 0406/0506 32006KT P6SM SCT140 BKN200
     FM041800 VRB05KT P6SM FEW080 SCT200
     FM050300 32006KT P6SM FEW080=



000
FTUS45 KVEF 040537
TAFEED
TAF
KEED 040537Z 0406/0506 33008KT P6SM FEW140 BKN200
     FM041800 01014G24KT P6SM FEW100
     FM050200 33008KT P6SM FEW080=



000
FTUS45 KVEF 040308 AAA
TAFLAS
TAF AMD
KLAS 040308Z 0403/0424 20005KT P6SM SCT140 SCT200
     FM041200 VRB05KT P6SM FEW080 SCT200=



000
FTUS45 KVEF 032327
TAFLAS
TAF
KLAS 032327Z 0400/0424 VRB05KT P6SM SKC
     FM040400 20005KT P6SM SCT200
     FM040800 20005KT P6SM SCT140 BKN200
     FM041200 VRB05KT P6SM SCT200
     FM041800 VRB05KT P6SM FEW080 SCT200=



000
FTUS45 KVEF 032327
TAFVGT
TAF
KVGT 032327Z 0400/0424 09006KT P6SM SKC
     FM040500 32006KT P6SM SCT200
     FM040800 32006KT P6SM SCT140 BKN200
     FM041200 32006KT P6SM SCT200
     FM041800 VRB05KT P6SM FEW080 SCT200=



000
FTUS45 KVEF 032327
TAFBIH
TAF
KBIH 032327Z 0400/0424 17007KT P6SM SCT140 BKN200
     FM040500 33006KT P6SM BKN100 OVC200
     FM041000 33006KT P6SM SCT100 BKN200
     FM041700 VRB05KT P6SM FEW100 BKN200=



000
FTUS45 KVEF 032327
TAFDAG
TAF
KDAG 032327Z 0400/0424 05006KT P6SM FEW250
     FM040200 VRB05KT P6SM SCT180
     FM040500 27007KT P6SM SCT140 BKN200
     FM041200 27006KT P6SM SKC
     FM041900 04007KT P6SM FEW150=



000
FTUS45 KVEF 032327
TAFLAS
TAF
KLAS 032327Z 0400/0424 VRB05KT P6SM SKC
     FM040400 20005KT P6SM SCT200
     FM040800 20005KT P6SM SCT140 BKN200
     FM041200 VRB05KT P6SM SCT200
     FM041800 VRB05KT P6SM FEW080 SCT200=



000
FTUS45 KVEF 032327
TAFEED
TAF
KEED 032327Z 0400/0424 02011KT P6SM SKC
     FM040300 34008KT P6SM FEW200
     FM040800 32006KT P6SM FEW140 BKN200
     FM041800 01014G24KT P6SM FEW200=



000
FTUS45 KVEF 032327
TAFVGT
TAF
KVGT 032327Z 0400/0424 09006KT P6SM SKC
     FM040500 32006KT P6SM SCT200
     FM040800 32006KT P6SM SCT140 BKN200
     FM041200 32006KT P6SM SCT200
     FM041800 VRB05KT P6SM FEW080 SCT200=



000
FTUS45 KVEF 032327
TAFLAS
TAF
KLAS 032327Z 0400/0424 VRB05KT P6SM SKC
     FM040400 20005KT P6SM SCT200
     FM040800 20005KT P6SM SCT140 BKN200
     FM041200 VRB05KT P6SM SCT200
     FM041800 VRB05KT P6SM FEW080 SCT200=



000
FTUS45 KVEF 032327
TAFDAG
TAF
KDAG 032327Z 0400/0424 05006KT P6SM FEW250
     FM040200 VRB05KT P6SM SCT180
     FM040500 27007KT P6SM SCT140 BKN200
     FM041200 27006KT P6SM SKC
     FM041900 04007KT P6SM FEW150=



000
FTUS45 KVEF 032327
TAFBIH
TAF
KBIH 032327Z 0400/0424 17007KT P6SM SCT140 BKN200
     FM040500 33006KT P6SM BKN100 OVC200
     FM041000 33006KT P6SM SCT100 BKN200
     FM041700 VRB05KT P6SM FEW100 BKN200=



000
FTUS45 KVEF 032327
TAFEED
TAF
KEED 032327Z 0400/0424 02011KT P6SM SKC
     FM040300 34008KT P6SM FEW200
     FM040800 32006KT P6SM FEW140 BKN200
     FM041800 01014G24KT P6SM FEW200=



000
FTUS45 KVEF 032046 AAA
TAFLAS
TAF AMD
KLAS 032046Z 0321/0418 VRB05KT P6SM SKC
     FM040400 20005KT P6SM SCT200
     FM040800 20005KT P6SM SCT140 BKN200=



000
FTUS45 KVEF 032046 AAA
TAFLAS
TAF AMD
KLAS 032046Z 0321/0418 VRB05KT P6SM SKC
     FM040400 20005KT P6SM SCT200
     FM040800 20005KT P6SM SCT140 BKN200=



000
FTUS45 KVEF 031738
TAFDAG
TAF
KDAG 031738Z 0318/0418 VRB06KT P6SM SKC
     FM031900 07006KT P6SM FEW250
     FM040200 VRB05KT P6SM SCT180
     FM040500 27007KT P6SM SCT140 BKN200=



000
FTUS45 KVEF 031738
TAFBIH
TAF
KBIH 031738Z 0318/0418 VRB06KT P6SM BKN070
     FM032100 17007KT P6SM SCT070 BKN160
     FM040500 33006KT P6SM BKN100=



000
FTUS45 KVEF 031738
TAFVGT
TAF
KVGT 031738Z 0318/0418 VRB06KT P6SM SKC
     FM031900 09006KT P6SM SKC
     FM040500 32006KT P6SM SCT200
     FM040800 32006KT P6SM SCT140 BKN200=



000
FTUS45 KVEF 031738
TAFLAS
TAF
KLAS 031738Z 0318/0418 06006KT P6SM SKC
     FM040400 20005KT P6SM SCT200
     FM040800 20005KT P6SM SCT140 BKN200=



000
FTUS45 KVEF 031738
TAFEED
TAF
KEED 031738Z 0318/0418 02011KT P6SM SKC
     FM040300 34008KT P6SM FEW200
     FM040800 32006KT P6SM FEW140 BKN200=



000
FTUS45 KVEF 031703 AAB
TAFLAS
TAF AMD
KLAS 031703Z 0317/0412 VRB06KT P6SM FEW250
     FM031800 06006KT P6SM FEW250
     FM040400 20005KT P6SM SCT200=



000
FTUS45 KVEF 031703 AAB
TAFLAS
TAF AMD
KLAS 031703Z 0317/0412 VRB06KT P6SM FEW250
     FM031800 06006KT P6SM FEW250
     FM040400 20005KT P6SM SCT200=



000
FTUS45 KVEF 031703 AAB
TAFLAS
TAF AMD
KLAS 031703Z 0317/0412 VRB06KT P6SM FEW250
     FM031800 06006KT P6SM FEW250
     FM040400 20005KT P6SM SCT200=



000
FTUS45 KVEF 031436 AAA
TAFLAS
TAF AMD
KLAS 031436Z 0315/0412 VRB06KT P6SM FEW250
     FM031800 06006KT P6SM FEW250
     FM040400 20005KT P6SM SCT200=



000
FTUS45 KVEF 031436 AAA
TAFLAS
TAF AMD
KLAS 031436Z 0315/0412 VRB06KT P6SM FEW250
     FM031800 06006KT P6SM FEW250
     FM040400 20005KT P6SM SCT200=



000
FTUS45 KVEF 031436 AAA
TAFLAS
TAF AMD
KLAS 031436Z 0315/0412 VRB06KT P6SM FEW250
     FM031800 06006KT P6SM FEW250
     FM040400 20005KT P6SM SCT200=



000
FTUS45 KVEF 031120
TAFBIH
TAF
KBIH 031120Z 0312/0412 32006KT P6SM SCT070
     FM031800 VRB06KT P6SM BKN070
     FM032100 17007KT P6SM SCT070 BKN160
     FM040500 33006KT P6SM BKN100=



000
FTUS45 KVEF 031120
TAFDAG
TAF
KDAG 031120Z 0312/0412 VRB06KT P6SM FEW250
     FM031900 07006KT P6SM FEW250
     FM040200 VRB05KT P6SM SCT180=



000
FTUS45 KVEF 031120
TAFLAS
TAF
KLAS 031120Z 0312/0412 21006KT P6SM SKC
     FM031500 VRB06KT P6SM FEW250
     FM031800 06006KT P6SM FEW250
     FM040400 20005KT P6SM SCT200=



000
FTUS45 KVEF 031120
TAFEED
TAF
KEED 031120Z 0312/0412 34008KT P6SM SKC
     FM031800 02011KT P6SM SKC
     FM040300 34008KT P6SM FEW200=



000
FTUS45 KVEF 031120
TAFVGT
TAF
KVGT 031120Z 0312/0412 32006KT P6SM SKC
     FM031600 VRB06KT P6SM FEW250
     FM031900 09006KT P6SM FEW250
     FM040500 32006KT P6SM SCT200=



000
FTUS45 KVEF 030845 AAA
TAFLAS
TAF AMD
KLAS 030845Z 0309/0406 21006KT P6SM SKC
     FM031500 VRB06KT P6SM FEW250
     FM031800 06006KT P6SM FEW250
     FM040400 20005KT P6SM SCT200=



000
FTUS45 KVEF 030845 AAA
TAFLAS
TAF AMD
KLAS 030845Z 0309/0406 21006KT P6SM SKC
     FM031500 VRB06KT P6SM FEW250
     FM031800 06006KT P6SM FEW250
     FM040400 20005KT P6SM SCT200=



    US Dept of Commerce
    National Oceanic and Atmospheric Administration
    National Weather Service
    1325 East West Highway
    Silver Spring, MD 20910
    Page Author: NWS Internet Services Team
Disclaimer
Information Quality
Credits
Glossary
Privacy Policy
Freedom of Information Act (FOIA)
About Us
Career Opportunities